Terminal Aerodrome Forecast
Issued by NWS Tulsa, OK

Home | Current Version | Previous Version | Text Only | Print | Product List | Glossary On
Versions: 1 2 3 4 5 6 7 8 9 10 11 12 13 14 15 16 17 18 19
000
FTUS44 KTSA 020500
TAFTUL
TAF
KTUL 020537Z 0206/0306 01006KT P6SM SCT025 BKN250
      TEMPO 0206/0210 BKN025
     FM021400 05006KT P6SM SCT020 BKN250
     FM021700 13006KT P6SM OVC015
     FM030000 16008KT P6SM OVC012=

USA.gov is the U.S. government's official web portal to all federal, state and local government web resources and services.